Time;durP1;ratioP1;P1;durP2;ratioP2;P2;SDS_P1;SDS_P2;PMS_P1;PMS_P2;Temp;Humidity;BMP_temperature;BMP_pressure;BME280_temperature;BME280_humidity;BME280_pressure;Samples;Min_cycle;Max_cycle;Signal;HPM_P1;HPM_P2
2021/01/13 00:01:37;;;;;;;7.50;5.97;;;0.80;99.90;;;;;;5059592;28;20453;-86
2021/01/13 00:04:04;;;;;;;7.50;5.03;;;0.80;99.90;;;;;;5058261;28;20461;-85
2021/01/13 00:06:30;;;;;;;8.43;6.17;;;0.90;99.90;;;;;;5053348;28;20536;-86
2021/01/13 00:08:56;;;;;;;7.93;4.83;;;0.90;99.90;;;;;;5054700;28;20443;-90
2021/01/13 00:11:24;;;;;;;5.63;4.73;;;1.00;99.90;;;;;;5062636;28;20938;-86
2021/01/13 00:13:50;;;;;;;7.93;5.00;;;1.00;99.90;;;;;;5057233;28;20547;-94
2021/01/13 00:16:16;;;;;;;6.57;4.97;;;1.00;99.90;;;;;;5054403;28;20481;-86
2021/01/13 00:18:42;;;;;;;12.10;4.50;;;1.00;99.90;;;;;;5053984;28;20864;-92
2021/01/13 00:21:12;;;;;;;9.40;5.00;;;1.00;99.90;;;;;;5052911;28;20489;-92
2021/01/13 00:23:41;;;;;;;5.43;4.40;;;1.00;99.90;;;;;;5054318;28;20449;-92
2021/01/13 00:26:08;;;;;;;6.00;4.20;;;1.00;99.90;;;;;;5053915;28;20451;-86
2021/01/13 00:28:35;;;;;;;5.60;3.67;;;1.00;99.90;;;;;;5054138;28;20453;-89
2021/01/13 00:31:01;;;;;;;9.10;4.70;;;1.10;99.90;;;;;;5053575;28;20478;-86
2021/01/13 00:33:28;;;;;;;5.30;2.40;;;1.10;99.90;;;;;;5054015;28;20449;-92
2021/01/13 00:35:54;;;;;;;3.60;3.00;;;1.10;99.90;;;;;;5049834;28;20453;-91
2021/01/13 00:38:20;;;;;;;6.33;3.97;;;1.20;99.90;;;;;;5054059;28;20502;-86
2021/01/13 00:40:47;;;;;;;6.10;2.93;;;1.10;99.90;;;;;;5053956;28;20804;-86
2021/01/13 00:43:13;;;;;;;5.70;3.50;;;1.10;99.90;;;;;;5050681;28;20784;-86
2021/01/13 00:45:40;;;;;;;6.77;4.27;;;1.10;99.90;;;;;;5053498;28;20449;-85
2021/01/13 00:48:07;;;;;;;8.27;3.50;;;1.10;99.90;;;;;;5048362;28;20458;-86
2021/01/13 00:50:33;;;;;;;6.30;3.03;;;1.10;99.90;;;;;;5052376;28;20963;-93
2021/01/13 00:52:59;;;;;;;5.17;3.70;;;1.10;99.90;;;;;;5050565;28;20450;-85
2021/01/13 00:55:28;;;;;;;6.43;3.30;;;1.10;99.90;;;;;;5053679;28;20480;-85
2021/01/13 00:57:54;;;;;;;4.50;2.80;;;1.10;99.90;;;;;;5053356;28;20814;-88
2021/01/13 01:00:21;;;;;;;12.47;3.50;;;1.10;99.90;;;;;;5053452;28;20453;-91
2021/01/13 01:02:48;;;;;;;4.67;3.50;;;1.10;99.90;;;;;;5053645;28;20960;-91
2021/01/13 01:05:17;;;;;;;5.47;3.40;;;1.20;99.90;;;;;;5053427;28;20458;-90
2021/01/13 01:07:44;;;;;;;6.13;4.50;;;3.30;99.90;;;;;;5059707;28;20448;-93
2021/01/13 01:10:17;;;;;;;5.10;3.27;;;1.20;99.90;;;;;;5064055;28;20483;-86
2021/01/13 01:12:43;;;;;;;4.47;3.13;;;;;;;;;;5063809;28;20527;-90
2021/01/13 01:15:12;;;;;;;5.53;3.67;;;1.20;99.90;;;;;;5063685;28;20464;-94
2021/01/13 01:17:39;;;;;;;4.80;3.20;;;1.20;99.90;;;;;;5063157;28;20455;-89
2021/01/13 01:20:12;;;;;;;4.63;3.43;;;1.10;99.90;;;;;;5062357;28;20664;-90
2021/01/13 01:22:53;;;;;;;3.93;3.00;;;1.20;99.90;;;;;;4982122;28;20460;-91
2021/01/13 01:25:20;;;;;;;6.80;3.13;;;1.20;99.90;;;;;;4985408;28;20453;-91
2021/01/13 01:27:48;;;;;;;6.13;2.60;;;1.20;99.90;;;;;;4984612;28;20522;-90
2021/01/13 01:30:16;;;;;;;5.87;3.20;;;1.20;99.90;;;;;;4983434;28;20446;-91
2021/01/13 01:32:44;;;;;;;7.20;2.90;;;1.20;99.90;;;;;;4982477;28;20448;-87
2021/01/13 01:35:12;;;;;;;2.93;2.10;;;1.20;99.90;;;;;;4981288;28;20441;-87
2021/01/13 01:37:39;;;;;;;8.03;2.37;;;1.20;99.90;;;;;;4983440;28;20591;-84
2021/01/13 01:40:08;;;;;;;6.80;3.77;;;1.20;99.90;;;;;;4984766;28;20505;-93
2021/01/13 01:42:36;;;;;;;5.20;2.63;;;1.30;99.90;;;;;;4983731;28;20456;-91
2021/01/13 01:45:03;;;;;;;6.73;3.53;;;1.20;99.90;;;;;;4982373;28;20503;-87
2021/01/13 01:48:13;;;;;;;3.40;2.73;;;1.20;99.90;;;;;;4982086;28;20450;-88
2021/01/13 01:50:43;;;;;;;4.47;3.10;;;1.20;99.90;;;;;;4981475;28;20454;-89
2021/01/13 01:53:31;;;;;;;6.40;3.30;;;1.20;99.90;;;;;;5006440;28;20448;-93
2021/01/13 01:56:05;;;;;;;4.37;2.53;;;1.20;99.90;;;;;;5059678;28;20534;-92
2021/01/13 01:58:32;;;;;;;3.70;2.20;;;1.20;99.90;;;;;;5062535;28;20584;-88
2021/01/13 02:01:00;;;;;;;7.73;2.50;;;1.20;99.90;;;;;;5061125;28;20478;-87
2021/01/13 02:03:31;;;;;;;6.90;2.90;;;1.20;99.90;;;;;;5062422;28;20522;-86
2021/01/13 02:06:07;;;;;;;6.70;3.20;;;1.20;99.90;;;;;;5059051;28;20449;-92
2021/01/13 02:08:38;;;;;;;4.10;2.53;;;1.30;99.90;;;;;;5062190;28;20453;-87
2021/01/13 02:11:05;;;;;;;8.37;2.70;;;1.30;99.90;;;;;;5062712;28;20809;-92
2021/01/13 02:13:32;;;;;;;5.90;2.63;;;1.30;99.90;;;;;;5056365;28;20445;-91
2021/01/13 02:15:59;;;;;;;6.70;2.93;;;1.30;99.90;;;;;;5062584;28;20470;-86
2021/01/13 02:18:30;;;;;;;3.53;2.60;;;1.30;99.90;;;;;;5066164;28;20501;-87
2021/01/13 02:21:03;;;;;;;3.13;2.30;;;1.30;99.90;;;;;;5063537;28;20438;-94
2021/01/13 02:23:31;;;;;;;6.23;2.60;;;1.20;99.90;;;;;;5061855;28;20451;-87
2021/01/13 02:26:49;;;;;;;5.50;2.80;;;1.20;99.90;;;;;;5059405;28;20454;-86
2021/01/13 02:29:35;;;;;;;3.43;2.10;;;1.20;99.90;;;;;;5062300;28;20439;-92
2021/01/13 02:32:16;;;;;;;4.13;2.50;;;1.20;99.90;;;;;;5059799;28;20791;-86
2021/01/13 02:34:55;;;;;;;6.53;2.53;;;1.20;99.90;;;;;;5055133;28;20453;-85
2021/01/13 02:37:43;;;;;;;3.40;2.30;;;1.20;99.90;;;;;;5061488;28;20473;-91
2021/01/13 02:40:14;;;;;;;7.80;2.57;;;1.20;99.90;;;;;;5060956;28;21061;-90
2021/01/13 02:42:49;;;;;;;4.97;2.73;;;1.20;99.90;;;;;;5058661;28;20869;-88
2021/01/13 02:45:18;;;;;;;3.07;2.40;;;1.20;99.90;;;;;;5060458;28;20449;-92
2021/01/13 02:48:13;;;;;;;6.00;2.23;;;1.20;99.90;;;;;;5061546;28;20446;-93
2021/01/13 02:50:45;;;;;;;3.33;2.30;;;1.20;99.90;;;;;;5059898;28;20484;-90
2021/01/13 02:53:44;;;;;;;2.87;2.57;;;1.20;99.90;;;;;;5057013;28;20906;-89
2021/01/13 02:56:24;;;;;;;3.73;2.23;;;1.20;99.90;;;;;;5060205;28;20552;-92
2021/01/13 02:58:56;;;;;;;4.77;2.13;;;1.20;99.90;;;;;;5009193;28;21000;-86
2021/01/13 03:01:24;;;;;;;3.90;2.50;;;1.20;99.90;;;;;;5060957;28;20438;-89
2021/01/13 03:03:52;;;;;;;3.00;2.50;;;1.20;99.90;;;;;;5061778;28;20458;-92
2021/01/13 03:06:18;;;;;;;4.23;2.27;;;1.20;99.90;;;;;;5063370;28;20515;-88
2021/01/13 03:08:54;;;;;;;4.17;2.40;;;1.20;99.90;;;;;;5065646;28;20474;-92
2021/01/13 03:11:21;;;;;;;6.20;2.70;;;1.20;99.90;;;;;;5061511;28;20474;-87
2021/01/13 03:13:48;;;;;;;6.73;2.30;;;1.20;99.90;;;;;;5060948;28;20462;-88
2021/01/13 03:16:17;;;;;;;5.40;2.50;;;1.20;99.90;;;;;;5060322;28;20474;-86
2021/01/13 03:18:56;;;;;;;4.50;2.40;;;1.20;99.90;;;;;;5059793;28;20915;-91
2021/01/13 03:21:29;;;;;;;6.77;2.30;;;1.20;99.90;;;;;;5059033;28;20442;-89
2021/01/13 03:24:06;;;;;;;4.17;2.00;;;1.20;99.90;;;;;;5055235;28;20458;-86
2021/01/13 03:26:38;;;;;;;6.30;2.10;;;1.10;99.90;;;;;;5059497;28;20490;-89
2021/01/13 03:29:06;;;;;;;3.60;2.33;;;1.10;99.90;;;;;;5056798;28;20477;-88
2021/01/13 03:31:49;;;;;;;2.30;2.10;;;1.10;99.90;;;;;;5059275;28;20948;-89
2021/01/13 03:34:26;;;;;;;4.30;2.57;;;1.00;99.90;;;;;;5059331;28;20454;-89
2021/01/13 03:37:16;;;;;;;4.07;2.00;;;1.10;99.90;;;;;;5055091;28;20819;-87
2021/01/13 03:39:42;;;;;;;3.90;1.60;;;1.00;99.90;;;;;;5059143;28;20490;-86
2021/01/13 03:42:12;;;;;;;3.63;2.10;;;1.00;99.90;;;;;;5059572;28;21005;-87
2021/01/13 03:44:41;;;;;;;8.20;2.10;;;1.00;99.90;;;;;;5059112;28;20472;-87
2021/01/13 03:47:44;;;;;;;4.30;2.13;;;0.90;99.90;;;;;;5059863;28;20816;-86
2021/01/13 03:50:17;;;;;;;5.37;2.20;;;0.90;99.90;;;;;;5059151;28;20475;-92
2021/01/13 03:52:56;;;;;;;3.47;2.53;;;0.80;99.90;;;;;;5059616;28;20512;-88
2021/01/13 03:55:24;;;;;;;3.00;2.13;;;0.80;99.90;;;;;;5056820;28;20957;-85
2021/01/13 03:58:14;;;;;;;5.03;2.00;;;0.80;99.90;;;;;;5060182;28;20438;-91
2021/01/13 04:01:03;;;;;;;6.30;2.17;;;0.80;99.90;;;;;;5059725;28;20451;-89
2021/01/13 04:03:32;;;;;;;3.37;2.70;;;0.80;99.90;;;;;;5056848;28;21018;-89
2021/01/13 04:06:08;;;;;;;3.03;2.33;;;0.80;99.90;;;;;;5058455;28;20460;-87
2021/01/13 04:08:38;;;;;;;3.77;2.43;;;0.80;99.90;;;;;;5060058;28;20537;-92
2021/01/13 04:11:06;;;;;;;7.13;2.57;;;0.80;99.90;;;;;;5059406;28;20441;-89
2021/01/13 04:13:39;;;;;;;3.93;2.63;;;0.60;99.90;;;;;;5053926;28;20457;-88
2021/01/13 04:16:07;;;;;;;4.90;2.83;;;0.70;99.90;;;;;;5060204;28;20819;-90
2021/01/13 04:18:33;;;;;;;3.17;2.30;;;0.70;99.90;;;;;;5060026;28;20488;-89
2021/01/13 04:21:01;;;;;;;7.10;2.63;;;0.70;99.90;;;;;;5057869;28;20508;-92
2021/01/13 04:23:30;;;;;;;3.20;1.90;;;0.70;99.90;;;;;;5060541;28;20435;-86
2021/01/13 04:25:58;;;;;;;5.00;2.67;;;0.70;99.90;;;;;;5059925;28;20447;-88
2021/01/13 04:28:25;;;;;;;7.87;2.87;;;0.60;99.90;;;;;;5059801;28;20508;-88
2021/01/13 04:30:52;;;;;;;5.93;2.63;;;0.60;99.90;;;;;;5053764;28;20452;-86
2021/01/13 04:33:19;;;;;;;4.43;2.50;;;0.60;99.90;;;;;;5061497;28;20509;-87
2021/01/13 04:35:46;;;;;;;8.23;2.60;;;0.60;99.90;;;;;;5062183;28;20461;-86
2021/01/13 04:38:21;;;;;;;7.93;2.63;;;0.60;99.90;;;;;;5059042;28;20970;-88
2021/01/13 04:40:51;;;;;;;5.27;2.53;;;0.60;99.90;;;;;;5059136;28;20448;-92
2021/01/13 04:43:24;;;;;;;5.00;2.80;;;0.60;99.90;;;;;;5059537;28;20520;-90
2021/01/13 04:45:51;;;;;;;6.73;2.90;;;0.60;99.90;;;;;;5063087;28;20470;-88
2021/01/13 04:48:21;;;;;;;4.70;3.20;;;0.50;99.90;;;;;;5065096;28;20448;-87
2021/01/13 04:50:50;;;;;;;4.10;2.40;;;0.50;99.90;;;;;;5059106;28;20602;-88
2021/01/13 04:53:18;;;;;;;8.80;3.23;;;0.50;99.90;;;;;;5059799;28;20443;-91
2021/01/13 04:55:47;;;;;;;5.07;2.27;;;0.50;99.90;;;;;;5059090;28;20487;-86
2021/01/13 04:59:04;;;;;;;3.67;2.50;;;0.50;99.90;;;;;;5059895;28;20424;-85
2021/01/13 05:02:01;;;;;;;3.23;2.10;;;0.70;99.90;;;;;;5058019;28;20457;-91
2021/01/13 05:05:03;;;;;;;8.03;2.57;;;0.60;99.90;;;;;;5058076;28;20516;-91
2021/01/13 05:07:37;;;;;;;5.90;2.10;;;0.70;99.90;;;;;;5055025;28;20465;-89
2021/01/13 05:10:23;;;;;;;8.67;3.10;;;0.70;99.90;;;;;;4977311;28;20454;-90
2021/01/13 05:12:53;;;;;;;4.30;2.77;;;0.60;99.90;;;;;;4976580;28;20960;-91
2021/01/13 05:15:24;;;;;;;3.93;2.70;;;0.60;99.90;;;;;;4972607;28;20469;-92
2021/01/13 05:18:02;;;;;;;6.70;3.13;;;0.60;99.90;;;;;;4963004;28;20459;-93
2021/01/13 05:20:30;;;;;;;3.90;2.40;;;0.60;99.90;;;;;;4973702;28;20457;-87
2021/01/13 05:22:57;;;;;;;5.20;2.77;;;0.70;99.90;;;;;;4978606;28;20449;-90
2021/01/13 05:25:37;;;;;;;4.43;3.43;;;0.70;99.90;;;;;;4978735;28;20693;-89
2021/01/13 05:28:06;;;;;;;5.17;2.97;;;0.70;99.90;;;;;;4976882;28;20499;-91
2021/01/13 05:30:39;;;;;;;13.93;3.40;;;0.70;99.90;;;;;;4976327;28;20457;-90
2021/01/13 05:33:11;;;;;;;5.13;2.83;;;0.70;99.90;;;;;;4974660;28;20460;-92
2021/01/13 05:35:39;;;;;;;4.33;2.93;;;0.70;99.90;;;;;;5048037;28;20816;-87
2021/01/13 05:38:16;;;;;;;5.13;3.30;;;0.70;99.90;;;;;;5054762;28;20841;-87
2021/01/13 05:40:44;;;;;;;10.80;3.40;;;0.70;99.90;;;;;;5053288;28;20461;-88
2021/01/13 05:43:10;;;;;;;10.73;4.07;;;0.80;99.90;;;;;;5056783;28;20454;-88
2021/01/13 05:45:40;;;;;;;5.27;3.20;;;1.00;99.90;;;;;;5057545;28;20457;-89
2021/01/13 05:48:14;;;;;;;5.53;3.70;;;0.80;99.90;;;;;;5056462;28;20464;-86
2021/01/13 05:50:41;;;;;;;5.73;3.50;;;0.80;99.90;;;;;;5052660;28;20448;-86
2021/01/13 05:53:08;;;;;;;6.77;3.10;;;0.80;99.90;;;;;;5054169;28;20517;-87
2021/01/13 05:55:35;;;;;;;7.57;3.10;;;0.80;99.90;;;;;;5051512;28;20981;-84
2021/01/13 05:58:03;;;;;;;6.03;3.27;;;0.80;99.90;;;;;;5058568;28;20448;-89
2021/01/13 06:00:31;;;;;;;5.27;2.93;;;0.80;99.90;;;;;;5058566;28;20493;-87
2021/01/13 06:03:00;;;;;;;3.93;3.07;;;0.80;99.90;;;;;;5063017;28;20483;-92
2021/01/13 06:05:28;;;;;;;4.27;2.20;;;0.80;99.90;;;;;;5057886;28;20442;-89
2021/01/13 06:07:57;;;;;;;4.37;2.67;;;0.70;99.90;;;;;;5053978;28;20439;-87
2021/01/13 06:10:28;;;;;;;5.53;2.70;;;0.70;99.90;;;;;;5053833;28;20602;-89
2021/01/13 06:12:58;;;;;;;3.87;2.70;;;0.50;99.90;;;;;;5057723;28;20804;-87
2021/01/13 06:15:25;;;;;;;4.00;3.30;;;0.60;99.90;;;;;;5056968;28;20819;-88
2021/01/13 06:17:53;;;;;;;67.60;35.50;;;0.60;99.90;;;;;;5057247;28;20446;-92
2021/01/13 06:20:22;;;;;;;13.37;9.53;;;0.60;99.90;;;;;;5056090;28;20494;-91
2021/01/13 06:22:50;;;;;;;8.30;5.27;;;0.50;99.90;;;;;;5056655;28;20447;-92
2021/01/13 06:25:22;;;;;;;4.90;3.00;;;0.50;99.90;;;;;;5057316;28;20453;-87
2021/01/13 06:28:13;;;;;;;4.30;2.70;;;0.50;99.90;;;;;;5056613;28;20443;-91
2021/01/13 06:30:40;;;;;;;5.10;3.47;;;0.50;99.90;;;;;;5053749;28;21285;-88
2021/01/13 06:33:09;;;;;;;4.57;3.47;;;0.50;99.90;;;;;;5056475;28;20803;-93
2021/01/13 06:36:06;;;;;;;7.57;3.17;;;0.40;99.90;;;;;;5056874;28;20508;-90
2021/01/13 06:38:42;;;;;;;7.50;3.83;;;0.40;99.90;;;;;;5057534;28;20518;-87
2021/01/13 06:41:10;;;;;;;3.57;2.10;;;0.40;99.90;;;;;;5053298;28;20458;-91
2021/01/13 06:43:36;;;;;;;4.03;2.03;;;0.40;99.90;;;;;;5057535;28;20440;-91
2021/01/13 06:46:17;;;;;;;5.30;3.83;;;0.40;99.90;;;;;;5057267;28;20486;-92
2021/01/13 06:48:43;;;;;;;5.33;3.60;;;0.40;99.90;;;;;;5067497;28;20485;-87
2021/01/13 06:51:16;;;;;;;8.50;2.53;;;0.30;99.90;;;;;;5061758;28;20938;-90
2021/01/13 06:53:45;;;;;;;9.20;3.60;;;0.30;99.90;;;;;;5063797;28;20457;-87
2021/01/13 06:56:14;;;;;;;8.03;3.40;;;0.30;99.90;;;;;;5076564;28;20496;-88
2021/01/13 06:58:54;;;;;;;12.33;4.33;;;0.20;99.90;;;;;;5077095;28;20507;-88
2021/01/13 07:01:20;;;;;;;6.27;3.63;;;0.20;99.90;;;;;;5072004;28;20475;-86
2021/01/13 07:03:46;;;;;;;10.27;4.00;;;0.20;99.90;;;;;;5077356;28;20435;-86
2021/01/13 07:06:13;;;;;;;15.67;7.80;;;0.20;99.90;;;;;;5076251;28;20492;-88
2021/01/13 07:08:40;;;;;;;17.77;12.90;;;0.20;99.90;;;;;;5075778;28;20970;-93
2021/01/13 07:11:09;;;;;;;10.50;5.33;;;0.20;99.90;;;;;;5078415;28;20505;-87
2021/01/13 07:13:38;;;;;;;14.10;5.60;;;0.20;99.90;;;;;;5071598;28;20447;-87
2021/01/13 07:16:05;;;;;;;12.40;7.57;;;0.10;99.90;;;;;;5076901;28;21006;-85
2021/01/13 07:18:32;;;;;;;8.33;6.13;;;0.00;99.90;;;;;;5077050;28;20485;-85
2021/01/13 07:21:06;;;;;;;8.23;7.20;;;0.00;99.90;;;;;;5075863;28;20452;-91
2021/01/13 07:23:33;;;;;;;7.50;5.57;;;-0.10;99.90;;;;;;5071136;28;20473;-89
2021/01/13 07:26:00;;;;;;;45.27;27.33;;;0.00;99.90;;;;;;5073620;28;20452;-93
2021/01/13 07:28:27;;;;;;;11.33;6.07;;;-0.10;99.90;;;;;;5080725;28;20481;-84
2021/01/13 07:30:55;;;;;;;5.20;4.37;;;-0.10;99.90;;;;;;5078246;28;20453;-90
2021/01/13 07:33:23;;;;;;;6.97;5.33;;;-0.10;99.90;;;;;;5075249;28;20446;-84
2021/01/13 07:35:51;;;;;;;1.73;1.27;;;-0.10;99.90;;;;;;5073570;28;20450;-87
2021/01/13 07:38:18;;;;;;;9.03;4.03;;;0.00;99.90;;;;;;5065687;28;20450;-86
2021/01/13 07:40:57;;;;;;;7.27;3.60;;;-0.10;99.90;;;;;;5058761;28;20453;-85
2021/01/13 07:44:01;;;;;;;8.30;5.60;;;-0.10;99.90;;;;;;5073755;28;20492;-84
2021/01/13 07:46:32;;;;;;;14.40;8.90;;;0.10;99.90;;;;;;5064010;28;20468;-88
2021/01/13 07:49:19;;;;;;;5.77;4.20;;;0.00;99.90;;;;;;5063940;28;20443;-89
2021/01/13 07:51:49;;;;;;;9.10;6.57;;;0.00;99.90;;;;;;5065314;28;20439;-86
2021/01/13 07:54:40;;;;;;;10.80;5.57;;;0.00;99.90;;;;;;5066922;28;20807;-90
2021/01/13 07:57:08;;;;;;;7.50;5.17;;;0.10;99.90;;;;;;5059754;28;20514;-88
2021/01/13 07:59:40;;;;;;;10.70;4.87;;;0.10;99.90;;;;;;5052841;28;20486;-91
2021/01/13 08:03:01;;;;;;;6.73;4.07;;;0.20;99.90;;;;;;5066065;28;20451;-87
2021/01/13 08:06:03;;;;;;;7.00;4.10;;;0.20;99.90;;;;;;5064757;28;20446;-87
2021/01/13 08:09:08;;;;;;;8.43;3.93;;;0.20;99.90;;;;;;5070620;28;20447;-88
2021/01/13 08:12:14;;;;;;;8.53;4.20;;;0.30;99.90;;;;;;5065305;28;20438;-85
2021/01/13 08:15:28;;;;;;;6.33;3.80;;;0.30;99.90;;;;;;5063651;28;20438;-85
2021/01/13 08:18:49;;;;;;;7.03;4.33;;;0.40;99.90;;;;;;5064658;28;20503;-86
2021/01/13 08:21:24;;;;;;;6.30;3.40;;;0.30;99.90;;;;;;5060953;28;20942;-87
2021/01/13 08:23:54;;;;;;;6.20;3.97;;;0.40;99.90;;;;;;5063502;28;20915;-88
2021/01/13 08:26:20;;;;;;;8.27;4.90;;;0.50;99.90;;;;;;5069232;28;20446;-87
2021/01/13 08:28:51;;;;;;;6.00;4.60;;;0.60;99.90;;;;;;5069061;28;20970;-86
2021/01/13 08:31:22;;;;;;;6.70;4.30;;;0.70;99.90;;;;;;5059041;28;20447;-86
2021/01/13 08:33:50;;;;;;;9.50;8.37;;;0.70;99.90;;;;;;5059183;28;20443;-87
2021/01/13 08:36:18;;;;;;;5.10;4.23;;;0.80;99.90;;;;;;5053546;28;20533;-89
2021/01/13 08:39:07;;;;;;;7.40;4.90;;;0.70;99.90;;;;;;5051302;28;20517;-85
2021/01/13 08:41:35;;;;;;;6.03;3.50;;;0.70;99.90;;;;;;5053597;28;20447;-85
2021/01/13 08:44:07;;;;;;;6.80;4.00;;;0.80;99.90;;;;;;5053579;28;20468;-83
2021/01/13 08:46:48;;;;;;;7.50;4.10;;;1.30;99.90;;;;;;5053547;28;20443;-87
2021/01/13 08:49:22;;;;;;;3.90;3.20;;;2.00;99.90;;;;;;5053362;28;20454;-86
2021/01/13 08:52:12;;;;;;;6.90;4.00;;;2.10;99.90;;;;;;5052384;28;20455;-84
2021/01/13 08:54:40;;;;;;;8.53;4.40;;;1.80;99.90;;;;;;5053816;28;20802;-87
2021/01/13 08:57:11;;;;;;;12.60;7.60;;;1.90;99.90;;;;;;5054133;28;20469;-87
2021/01/13 08:59:42;;;;;;;22.63;11.63;;;2.00;99.90;;;;;;5053723;28;20525;-84
2021/01/13 09:02:14;;;;;;;8.70;6.43;;;1.80;99.90;;;;;;5053052;28;20457;-86
2021/01/13 09:04:51;;;;;;;11.00;6.17;;;1.80;99.90;;;;;;5055138;28;20975;-85
2021/01/13 09:07:22;;;;;;;6.63;4.13;;;1.70;99.90;;;;;;5054653;28;20440;-92
2021/01/13 09:09:59;;;;;;;6.70;3.07;;;1.60;99.90;;;;;;5019856;28;20467;-88
2021/01/13 09:12:33;;;;;;;7.40;3.70;;;1.70;99.90;;;;;;5054009;28;20470;-88
2021/01/13 09:15:27;;;;;;;6.23;2.83;;;1.80;99.90;;;;;;5053580;28;20449;-89
2021/01/13 09:17:56;;;;;;;4.00;3.43;;;2.00;99.90;;;;;;5053518;28;20457;-91
2021/01/13 09:20:25;;;;;;;3.50;2.70;;;2.00;99.90;;;;;;5052908;28;20513;-89
2021/01/13 09:22:54;;;;;;;4.33;2.70;;;2.10;99.90;;;;;;5051243;28;20443;-90
2021/01/13 09:25:22;;;;;;;5.00;2.47;;;2.00;99.90;;;;;;5054158;28;20451;-92
2021/01/13 09:27:50;;;;;;;6.03;2.50;;;2.00;99.90;;;;;;5051713;28;20964;-89
2021/01/13 09:30:33;;;;;;;9.00;3.43;;;1.90;99.90;;;;;;5055768;28;20858;-89
2021/01/13 09:33:01;;;;;;;1.40;1.17;;;1.90;99.90;;;;;;5057158;28;20499;-87
2021/01/13 09:35:31;;;;;;;9.43;3.17;;;1.90;99.90;;;;;;5056253;28;20453;-89
2021/01/13 09:38:04;;;;;;;6.50;3.77;;;1.80;99.90;;;;;;5056977;28;20510;-85
2021/01/13 09:40:52;;;;;;;3.67;2.97;;;1.80;99.90;;;;;;5057902;28;20628;-88
2021/01/13 09:43:40;;;;;;;10.07;3.70;;;2.30;99.90;;;;;;5054040;28;20501;-85
2021/01/13 09:46:08;;;;;;;4.40;2.10;;;1.80;99.90;;;;;;5052364;28;20461;-89
2021/01/13 09:48:36;;;;;;;4.80;2.67;;;1.80;99.90;;;;;;5056825;28;20499;-92
2021/01/13 09:51:05;;;;;;;5.20;3.90;;;1.80;99.90;;;;;;5056871;28;20450;-86
2021/01/13 09:53:35;;;;;;;4.50;2.87;;;1.90;99.90;;;;;;5057204;28;20453;-86
2021/01/13 09:56:07;;;;;;;9.93;1.60;;;1.90;99.90;;;;;;5056353;28;20482;-84
2021/01/13 09:58:39;;;;;;;3.43;2.97;;;1.90;99.90;;;;;;5056773;28;20457;-87
2021/01/13 10:01:13;;;;;;;8.03;2.67;;;1.90;99.90;;;;;;5057137;28;20454;-86
2021/01/13 10:03:41;;;;;;;9.17;3.03;;;2.00;99.90;;;;;;5057923;28;20947;-87
2021/01/13 10:06:20;;;;;;;3.90;2.50;;;2.10;99.90;;;;;;5053107;28;20465;-84
2021/01/13 10:08:48;;;;;;;3.13;2.00;;;2.10;99.90;;;;;;5056337;28;20473;-85
2021/01/13 10:11:15;;;;;;;5.10;2.37;;;2.10;99.90;;;;;;5055866;28;20450;-87
2021/01/13 10:13:44;;;;;;;4.80;1.80;;;2.00;99.90;;;;;;5055941;28;20454;-84
2021/01/13 10:16:13;;;;;;;7.53;3.23;;;2.00;99.90;;;;;;5073079;28;20449;-83
2021/01/13 10:18:49;;;;;;;9.10;3.30;;;2.00;99.90;;;;;;5070140;28;20480;-85
2021/01/13 10:21:16;;;;;;;6.10;3.80;;;2.20;99.90;;;;;;5064254;28;20455;-84
2021/01/13 10:23:44;;;;;;;8.03;2.90;;;2.20;99.90;;;;;;5078487;28;20437;-85
2021/01/13 10:26:12;;;;;;;3.80;1.77;;;2.20;99.90;;;;;;5061045;28;20445;-84
2021/01/13 10:28:39;;;;;;;4.00;2.00;;;2.20;99.90;;;;;;5052698;28;20508;-86
2021/01/13 10:31:06;;;;;;;4.57;2.13;;;2.60;99.90;;;;;;5055539;28;20450;-86
2021/01/13 10:33:47;;;;;;;3.00;2.23;;;2.50;99.90;;;;;;5055943;28;20457;-88
2021/01/13 10:36:41;;;;;;;7.00;3.07;;;2.50;99.90;;;;;;5054636;28;20933;-85
2021/01/13 10:39:21;;;;;;;4.57;2.70;;;2.40;99.90;;;;;;5020189;28;20494;-85
2021/01/13 10:41:50;;;;;;;0.67;0.67;;;2.20;99.90;;;;;;5054622;28;20545;-86
2021/01/13 10:44:18;;;;;;;7.13;3.63;;;2.40;99.90;;;;;;5055288;28;20466;-85
2021/01/13 10:46:53;;;;;;;5.90;4.50;;;2.40;99.90;;;;;;5055181;28;20446;-84
2021/01/13 10:49:34;;;;;;;4.60;2.80;;;2.60;99.90;;;;;;5055314;28;20446;-86
2021/01/13 10:52:03;;;;;;;10.80;3.70;;;2.60;99.90;;;;;;5054469;28;20454;-85
2021/01/13 10:54:30;;;;;;;2.67;2.40;;;2.70;99.90;;;;;;5054936;28;20952;-88
2021/01/13 10:57:00;;;;;;;5.20;3.30;;;2.70;99.90;;;;;;5065359;28;20450;-83
2021/01/13 10:59:28;;;;;;;6.60;5.40;;;2.70;99.90;;;;;;5073823;28;20492;-84
2021/01/13 11:01:58;;;;;;;6.73;3.13;;;3.00;99.90;;;;;;5075710;28;20446;-85
2021/01/13 11:04:32;;;;;;;4.20;2.67;;;2.80;99.90;;;;;;5074779;28;20450;-84
2021/01/13 11:07:01;;;;;;;4.67;3.60;;;2.90;99.90;;;;;;5070691;28;20449;-83
2021/01/13 11:09:28;;;;;;;4.30;2.60;;;3.00;99.90;;;;;;5074990;28;20461;-86
2021/01/13 11:11:56;;;;;;;4.70;4.20;;;3.00;99.90;;;;;;5074626;28;20460;-84
2021/01/13 11:14:48;;;;;;;11.50;3.23;;;2.90;99.90;;;;;;5057067;28;20450;-83
2021/01/13 11:17:16;;;;;;;1.43;1.10;;;2.70;99.90;;;;;;5049168;28;20495;-85
2021/01/13 11:19:45;;;;;;;4.10;2.73;;;2.60;99.90;;;;;;5063104;28;20486;-85
2021/01/13 11:22:13;;;;;;;5.13;2.90;;;3.00;99.90;;;;;;5073550;28;20825;-86
2021/01/13 11:24:43;;;;;;;6.40;4.70;;;3.50;99.90;;;;;;5073765;28;20448;-84
2021/01/13 11:27:12;;;;;;;6.30;3.67;;;3.70;99.90;;;;;;5079554;28;20457;-85
2021/01/13 11:29:40;;;;;;;3.80;3.20;;;3.50;99.90;;;;;;5082478;28;20456;-85
2021/01/13 11:32:12;;;;;;;4.27;2.93;;;3.30;99.90;;;;;;5075454;28;20446;-87
2021/01/13 11:34:39;;;;;;;16.20;1.73;;;3.30;99.90;;;;;;5070633;28;20527;-86
2021/01/13 11:37:19;;;;;;;6.57;2.67;;;3.20;99.90;;;;;;5052958;28;20962;-86
2021/01/13 11:39:54;;;;;;;4.07;2.70;;;3.20;99.90;;;;;;5053977;28;20567;-84
2021/01/13 11:42:34;;;;;;;6.30;2.70;;;3.00;99.90;;;;;;5053927;28;21018;-85
2021/01/13 11:45:13;;;;;;;5.93;2.87;;;3.50;99.90;;;;;;5053646;28;20529;-84
2021/01/13 11:47:46;;;;;;;4.10;2.57;;;3.70;99.90;;;;;;5055107;28;20448;-86
2021/01/13 11:50:14;;;;;;;4.03;2.17;;;3.70;99.90;;;;;;5063253;28;20455;-85
2021/01/13 11:52:45;;;;;;;3.60;2.57;;;3.50;99.90;;;;;;5056043;28;20470;-86
2021/01/13 11:55:12;;;;;;;1.33;1.03;;;3.60;99.90;;;;;;5067487;28;20988;-86
2021/01/13 11:57:39;;;;;;;7.07;3.27;;;3.40;99.90;;;;;;5073890;28;20500;-85
2021/01/13 12:00:16;;;;;;;1.57;1.47;;;3.60;99.90;;;;;;5073956;28;20492;-85
2021/01/13 12:02:48;;;;;;;5.23;1.00;;;3.40;99.90;;;;;;5073907;28;20491;-87
2021/01/13 12:05:27;;;;;;;4.40;3.83;;;3.40;99.90;;;;;;5072551;28;20451;-85
2021/01/13 12:08:01;;;;;;;5.27;3.10;;;3.50;99.90;;;;;;5055862;28;20494;-88
2021/01/13 12:10:36;;;;;;;0.40;0.40;;;3.50;99.90;;;;;;5054114;28;20481;-86
2021/01/13 12:13:12;;;;;;;9.10;2.90;;;3.30;99.90;;;;;;5054298;28;20449;-85
2021/01/13 12:15:53;;;;;;;4.67;1.50;;;3.20;99.90;;;;;;5053559;28;20458;-83
2021/01/13 12:18:22;;;;;;;1.50;1.27;;;3.00;99.90;;;;;;5053316;28;20484;-84
2021/01/13 12:20:49;;;;;;;2.00;1.50;;;3.20;99.90;;;;;;5052163;28;20580;-86
2021/01/13 12:23:21;;;;;;;7.50;4.37;;;3.20;99.90;;;;;;5053427;28;20469;-86
2021/01/13 12:25:50;;;;;;;8.80;3.10;;;3.20;99.90;;;;;;5053407;28;20453;-84
2021/01/13 12:28:16;;;;;;;3.13;1.70;;;3.10;99.90;;;;;;5053652;28;20463;-85
2021/01/13 12:30:56;;;;;;;2.23;1.53;;;3.10;99.90;;;;;;5053281;28;20463;-84
2021/01/13 12:33:23;;;;;;;3.50;0.70;;;3.20;99.90;;;;;;5053843;28;20457;-85
2021/01/13 12:35:50;;;;;;;7.90;3.90;;;3.30;99.90;;;;;;5052468;28;20448;-85
2021/01/13 12:38:16;;;;;;;1.10;0.80;;;3.40;99.90;;;;;;5053262;28;20450;-85
2021/01/13 12:40:43;;;;;;;0.90;0.80;;;;;;;;;;5053198;28;20553;-83
2021/01/13 12:43:14;;;;;;;0.50;0.50;;;3.20;99.90;;;;;;5053001;28;20447;-83
2021/01/13 12:45:41;;;;;;;0.40;0.30;;;3.20;99.90;;;;;;5053650;28;20454;-88
2021/01/13 12:48:08;;;;;;;0.60;0.53;;;3.10;99.90;;;;;;5053722;28;20458;-86
2021/01/13 12:50:36;;;;;;;2.07;1.17;;;3.40;99.90;;;;;;5052542;28;20485;-85
2021/01/13 12:53:03;;;;;;;2.67;0.53;;;;;;;;;;5053390;28;20454;-85
2021/01/13 12:55:30;;;;;;;1.63;0.50;;;3.30;99.90;;;;;;5053077;28;20482;-86
2021/01/13 12:57:56;;;;;;;3.17;1.07;;;3.40;99.90;;;;;;5052985;28;20455;-85
2021/01/13 13:00:24;;;;;;;4.83;2.60;;;3.40;99.90;;;;;;5049735;28;20576;-85
2021/01/13 13:02:51;;;;;;;0.83;0.30;;;3.30;99.90;;;;;;5046687;28;20487;-87
2021/01/13 13:05:17;;;;;;;2.73;0.70;;;3.10;99.90;;;;;;5052630;28;20455;-91
2021/01/13 13:07:44;;;;;;;2.90;1.93;;;3.10;99.90;;;;;;5054559;28;20959;-87
2021/01/13 13:10:11;;;;;;;0.50;0.47;;;3.00;99.90;;;;;;5064107;28;20796;-89
2021/01/13 13:12:37;;;;;;;3.70;1.23;;;3.00;99.90;;;;;;5071895;28;20439;-88
2021/01/13 13:15:05;;;;;;;4.03;0.80;;;3.40;99.90;;;;;;5076817;28;20507;-91
2021/01/13 13:17:31;;;;;;;1.90;0.60;;;4.30;99.90;;;;;;5077963;28;20453;-89
2021/01/13 13:19:58;;;;;;;3.57;2.00;;;;;;;;;;5079589;28;20488;-90
2021/01/13 13:22:25;;;;;;;0.73;0.60;;;;;;;;;;5080586;28;20448;-88
2021/01/13 13:24:52;;;;;;;3.27;0.90;;;5.00;99.90;;;;;;5077890;28;21104;-88
2021/01/13 13:27:19;;;;;;;1.70;0.80;;;;;;;;;;5070036;28;20450;-89